sensor_id;sensor_type;location;lat;lon;timestamp;P1;durP1;ratioP1;P2;durP2;ratioP2
46230;SDS011;31949;51.404;-0.038;2023-07-29T00:00:47;4.45;;;1.40;;
46230;SDS011;31949;51.404;-0.038;2023-07-29T00:03:14;2.72;;;1.20;;
46230;SDS011;31949;51.404;-0.038;2023-07-29T00:05:41;3.70;;;1.25;;
46230;SDS011;31949;51.404;-0.038;2023-07-29T00:08:09;2.00;;;1.08;;
46230;SDS011;31949;51.404;-0.038;2023-07-29T00:10:37;1.63;;;0.82;;
46230;SDS011;31949;51.404;-0.038;2023-07-29T00:13:05;3.00;;;0.93;;
46230;SDS011;31949;51.404;-0.038;2023-07-29T00:15:32;2.80;;;1.38;;
46230;SDS011;31949;51.404;-0.038;2023-07-29T00:18:00;1.92;;;0.90;;
46230;SDS011;31949;51.404;-0.038;2023-07-29T00:20:27;2.80;;;0.98;;
46230;SDS011;31949;51.404;-0.038;2023-07-29T00:22:54;2.72;;;1.35;;
46230;SDS011;31949;51.404;-0.038;2023-07-29T00:25:22;2.10;;;1.00;;
46230;SDS011;31949;51.404;-0.038;2023-07-29T00:27:49;2.13;;;1.23;;
46230;SDS011;31949;51.404;-0.038;2023-07-29T00:30:17;1.55;;;0.75;;
46230;SDS011;31949;51.404;-0.038;2023-07-29T00:32:44;6.28;;;3.05;;
46230;SDS011;31949;51.404;-0.038;2023-07-29T00:35:12;8.88;;;3.90;;
46230;SDS011;31949;51.404;-0.038;2023-07-29T00:37:39;16.60;;;7.93;;
46230;SDS011;31949;51.404;-0.038;2023-07-29T00:40:09;11.20;;;5.57;;
46230;SDS011;31949;51.404;-0.038;2023-07-29T00:42:44;8.00;;;3.85;;
46230;SDS011;31949;51.404;-0.038;2023-07-29T00:45:11;5.03;;;2.97;;
46230;SDS011;31949;51.404;-0.038;2023-07-29T00:47:39;3.38;;;1.80;;
46230;SDS011;31949;51.404;-0.038;2023-07-29T00:50:12;2.63;;;1.73;;
46230;SDS011;31949;51.404;-0.038;2023-07-29T00:52:41;2.13;;;2.03;;
46230;SDS011;31949;51.404;-0.038;2023-07-29T00:55:08;2.00;;;1.55;;
46230;SDS011;31949;51.404;-0.038;2023-07-29T00:57:36;2.72;;;1.92;;
46230;SDS011;31949;51.404;-0.038;2023-07-29T01:00:04;4.07;;;1.85;;
46230;SDS011;31949;51.404;-0.038;2023-07-29T01:02:32;2.00;;;1.85;;
46230;SDS011;31949;51.404;-0.038;2023-07-29T01:04:59;4.60;;;2.22;;
46230;SDS011;31949;51.404;-0.038;2023-07-29T01:10:10;3.83;;;2.45;;
46230;SDS011;31949;51.404;-0.038;2023-07-29T01:15:43;3.78;;;2.67;;
46230;SDS011;31949;51.404;-0.038;2023-07-29T01:18:15;3.95;;;1.88;;
46230;SDS011;31949;51.404;-0.038;2023-07-29T01:20:49;4.13;;;1.98;;
46230;SDS011;31949;51.404;-0.038;2023-07-29T01:23:23;2.80;;;2.33;;
46230;SDS011;31949;51.404;-0.038;2023-07-29T01:25:58;2.90;;;2.10;;
46230;SDS011;31949;51.404;-0.038;2023-07-29T01:28:25;5.57;;;2.40;;
46230;SDS011;31949;51.404;-0.038;2023-07-29T01:30:59;4.55;;;2.05;;
46230;SDS011;31949;51.404;-0.038;2023-07-29T01:34:06;2.47;;;2.20;;
46230;SDS011;31949;51.404;-0.038;2023-07-29T01:36:33;3.25;;;1.98;;
46230;SDS011;31949;51.404;-0.038;2023-07-29T01:39:02;4.18;;;2.92;;
46230;SDS011;31949;51.404;-0.038;2023-07-29T01:41:30;3.83;;;2.58;;
46230;SDS011;31949;51.404;-0.038;2023-07-29T01:43:58;2.40;;;2.20;;
46230;SDS011;31949;51.404;-0.038;2023-07-29T01:46:25;2.95;;;2.00;;
46230;SDS011;31949;51.404;-0.038;2023-07-29T01:48:53;3.60;;;2.40;;
46230;SDS011;31949;51.404;-0.038;2023-07-29T01:51:20;3.20;;;2.35;;
46230;SDS011;31949;51.404;-0.038;2023-07-29T01:53:47;4.75;;;2.03;;
46230;SDS011;31949;51.404;-0.038;2023-07-29T01:56:15;4.63;;;2.20;;
46230;SDS011;31949;51.404;-0.038;2023-07-29T01:58:50;2.95;;;2.28;;
46230;SDS011;31949;51.404;-0.038;2023-07-29T02:01:18;3.30;;;2.72;;
46230;SDS011;31949;51.404;-0.038;2023-07-29T02:03:45;4.75;;;2.60;;
46230;SDS011;31949;51.404;-0.038;2023-07-29T02:06:12;8.75;;;2.92;;
46230;SDS011;31949;51.404;-0.038;2023-07-29T02:08:40;6.30;;;3.22;;
46230;SDS011;31949;51.404;-0.038;2023-07-29T02:11:07;7.45;;;3.50;;
46230;SDS011;31949;51.404;-0.038;2023-07-29T02:13:35;7.10;;;3.47;;
46230;SDS011;31949;51.404;-0.038;2023-07-29T02:16:02;11.48;;;6.30;;
46230;SDS011;31949;51.404;-0.038;2023-07-29T02:18:29;9.77;;;6.75;;
46230;SDS011;31949;51.404;-0.038;2023-07-29T02:20:56;15.25;;;7.85;;
46230;SDS011;31949;51.404;-0.038;2023-07-29T02:23:23;12.13;;;7.72;;
46230;SDS011;31949;51.404;-0.038;2023-07-29T02:25:51;12.68;;;6.13;;
46230;SDS011;31949;51.404;-0.038;2023-07-29T02:28:18;9.35;;;5.53;;
46230;SDS011;31949;51.404;-0.038;2023-07-29T02:30:45;11.32;;;7.13;;
46230;SDS011;31949;51.404;-0.038;2023-07-29T02:33:13;11.75;;;6.13;;
46230;SDS011;31949;51.404;-0.038;2023-07-29T02:35:40;13.75;;;7.75;;
46230;SDS011;31949;51.404;-0.038;2023-07-29T02:38:07;26.90;;;13.43;;
46230;SDS011;31949;51.404;-0.038;2023-07-29T02:40:35;46.88;;;25.30;;
46230;SDS011;31949;51.404;-0.038;2023-07-29T02:43:02;48.63;;;26.40;;
46230;SDS011;31949;51.404;-0.038;2023-07-29T02:45:29;45.72;;;23.55;;
46230;SDS011;31949;51.404;-0.038;2023-07-29T02:47:56;35.65;;;19.15;;
46230;SDS011;31949;51.404;-0.038;2023-07-29T02:50:24;25.52;;;12.25;;
46230;SDS011;31949;51.404;-0.038;2023-07-29T02:52:51;20.00;;;9.45;;
46230;SDS011;31949;51.404;-0.038;2023-07-29T02:55:19;11.27;;;5.10;;
46230;SDS011;31949;51.404;-0.038;2023-07-29T02:57:46;5.80;;;4.47;;
46230;SDS011;31949;51.404;-0.038;2023-07-29T03:00:13;4.88;;;3.70;;
46230;SDS011;31949;51.404;-0.038;2023-07-29T03:02:41;3.38;;;3.05;;
46230;SDS011;31949;51.404;-0.038;2023-07-29T03:05:09;4.05;;;2.80;;
46230;SDS011;31949;51.404;-0.038;2023-07-29T03:07:36;3.60;;;2.90;;
46230;SDS011;31949;51.404;-0.038;2023-07-29T03:10:03;3.40;;;2.83;;
46230;SDS011;31949;51.404;-0.038;2023-07-29T03:12:32;3.60;;;2.50;;
46230;SDS011;31949;51.404;-0.038;2023-07-29T03:14:59;7.18;;;2.97;;
46230;SDS011;31949;51.404;-0.038;2023-07-29T03:17:27;5.15;;;3.42;;
46230;SDS011;31949;51.404;-0.038;2023-07-29T03:19:54;4.30;;;3.08;;
46230;SDS011;31949;51.404;-0.038;2023-07-29T03:22:21;6.47;;;3.22;;
46230;SDS011;31949;51.404;-0.038;2023-07-29T03:24:49;4.45;;;2.40;;
46230;SDS011;31949;51.404;-0.038;2023-07-29T03:27:16;6.93;;;3.63;;
46230;SDS011;31949;51.404;-0.038;2023-07-29T03:29:43;3.28;;;2.72;;
46230;SDS011;31949;51.404;-0.038;2023-07-29T03:32:11;3.22;;;2.33;;
46230;SDS011;31949;51.404;-0.038;2023-07-29T03:34:38;5.30;;;2.95;;
46230;SDS011;31949;51.404;-0.038;2023-07-29T03:37:06;5.97;;;3.38;;
46230;SDS011;31949;51.404;-0.038;2023-07-29T03:39:34;3.83;;;2.72;;
46230;SDS011;31949;51.404;-0.038;2023-07-29T03:42:01;4.22;;;2.78;;
46230;SDS011;31949;51.404;-0.038;2023-07-29T03:44:28;6.45;;;2.85;;
46230;SDS011;31949;51.404;-0.038;2023-07-29T03:46:55;4.57;;;2.90;;
46230;SDS011;31949;51.404;-0.038;2023-07-29T03:49:23;4.22;;;2.40;;
46230;SDS011;31949;51.404;-0.038;2023-07-29T03:51:50;8.82;;;3.13;;
46230;SDS011;31949;51.404;-0.038;2023-07-29T03:54:18;4.50;;;2.47;;
46230;SDS011;31949;51.404;-0.038;2023-07-29T03:56:45;4.78;;;2.90;;
46230;SDS011;31949;51.404;-0.038;2023-07-29T03:59:12;4.13;;;2.80;;
46230;SDS011;31949;51.404;-0.038;2023-07-29T04:01:39;3.00;;;2.28;;
46230;SDS011;31949;51.404;-0.038;2023-07-29T04:04:07;5.35;;;3.05;;
46230;SDS011;31949;51.404;-0.038;2023-07-29T04:06:34;7.00;;;3.63;;
46230;SDS011;31949;51.404;-0.038;2023-07-29T04:09:02;8.40;;;4.00;;
46230;SDS011;31949;51.404;-0.038;2023-07-29T04:11:30;7.47;;;4.30;;
46230;SDS011;31949;51.404;-0.038;2023-07-29T04:13:57;11.23;;;5.00;;
46230;SDS011;31949;51.404;-0.038;2023-07-29T04:16:25;10.20;;;6.22;;
46230;SDS011;31949;51.404;-0.038;2023-07-29T04:18:53;13.35;;;7.45;;
46230;SDS011;31949;51.404;-0.038;2023-07-29T04:21:20;14.82;;;7.35;;
46230;SDS011;31949;51.404;-0.038;2023-07-29T04:23:47;20.40;;;10.75;;
46230;SDS011;31949;51.404;-0.038;2023-07-29T04:26:15;17.27;;;9.80;;
46230;SDS011;31949;51.404;-0.038;2023-07-29T04:28:42;11.75;;;8.75;;
46230;SDS011;31949;51.404;-0.038;2023-07-29T04:31:09;16.00;;;8.95;;
46230;SDS011;31949;51.404;-0.038;2023-07-29T04:33:36;13.02;;;8.30;;
46230;SDS011;31949;51.404;-0.038;2023-07-29T04:36:04;12.23;;;6.38;;
46230;SDS011;31949;51.404;-0.038;2023-07-29T04:38:33;13.60;;;5.65;;
46230;SDS011;31949;51.404;-0.038;2023-07-29T04:41:00;9.93;;;6.05;;
46230;SDS011;31949;51.404;-0.038;2023-07-29T04:43:30;13.35;;;6.78;;
46230;SDS011;31949;51.404;-0.038;2023-07-29T04:45:58;11.80;;;5.45;;
46230;SDS011;31949;51.404;-0.038;2023-07-29T04:48:26;8.15;;;4.55;;
46230;SDS011;31949;51.404;-0.038;2023-07-29T04:50:53;6.90;;;3.53;;
46230;SDS011;31949;51.404;-0.038;2023-07-29T04:53:21;6.05;;;2.95;;
46230;SDS011;31949;51.404;-0.038;2023-07-29T04:55:48;6.82;;;3.47;;
46230;SDS011;31949;51.404;-0.038;2023-07-29T04:58:15;5.55;;;2.92;;
46230;SDS011;31949;51.404;-0.038;2023-07-29T05:00:42;4.57;;;2.67;;
46230;SDS011;31949;51.404;-0.038;2023-07-29T05:03:10;4.88;;;2.83;;
46230;SDS011;31949;51.404;-0.038;2023-07-29T05:05:37;5.22;;;2.83;;
46230;SDS011;31949;51.404;-0.038;2023-07-29T05:08:05;7.00;;;3.80;;
46230;SDS011;31949;51.404;-0.038;2023-07-29T05:10:32;7.43;;;3.80;;
46230;SDS011;31949;51.404;-0.038;2023-07-29T05:13:01;9.18;;;3.40;;
46230;SDS011;31949;51.404;-0.038;2023-07-29T05:15:28;4.78;;;3.22;;
46230;SDS011;31949;51.404;-0.038;2023-07-29T05:17:56;5.75;;;3.25;;
46230;SDS011;31949;51.404;-0.038;2023-07-29T05:20:23;5.40;;;3.15;;
46230;SDS011;31949;51.404;-0.038;2023-07-29T05:22:50;6.03;;;2.88;;
46230;SDS011;31949;51.404;-0.038;2023-07-29T05:25:18;7.10;;;3.38;;
46230;SDS011;31949;51.404;-0.038;2023-07-29T05:27:45;3.33;;;3.00;;
46230;SDS011;31949;51.404;-0.038;2023-07-29T05:30:12;6.10;;;2.88;;
46230;SDS011;31949;51.404;-0.038;2023-07-29T05:32:40;4.93;;;2.90;;
46230;SDS011;31949;51.404;-0.038;2023-07-29T05:35:07;6.00;;;3.35;;
46230;SDS011;31949;51.404;-0.038;2023-07-29T05:37:38;4.97;;;3.28;;
46230;SDS011;31949;51.404;-0.038;2023-07-29T05:40:09;6.72;;;3.95;;
46230;SDS011;31949;51.404;-0.038;2023-07-29T05:42:38;6.68;;;3.85;;
46230;SDS011;31949;51.404;-0.038;2023-07-29T05:45:05;5.65;;;3.40;;
46230;SDS011;31949;51.404;-0.038;2023-07-29T05:47:33;5.95;;;3.92;;
46230;SDS011;31949;51.404;-0.038;2023-07-29T05:50:00;7.38;;;4.05;;
46230;SDS011;31949;51.404;-0.038;2023-07-29T05:52:31;5.63;;;3.53;;
46230;SDS011;31949;51.404;-0.038;2023-07-29T05:54:59;7.28;;;3.80;;
46230;SDS011;31949;51.404;-0.038;2023-07-29T05:57:26;5.45;;;3.30;;
46230;SDS011;31949;51.404;-0.038;2023-07-29T05:59:54;6.85;;;4.05;;
46230;SDS011;31949;51.404;-0.038;2023-07-29T06:02:22;11.50;;;3.75;;
46230;SDS011;31949;51.404;-0.038;2023-07-29T06:04:49;5.82;;;3.67;;
46230;SDS011;31949;51.404;-0.038;2023-07-29T06:07:16;9.07;;;3.78;;
46230;SDS011;31949;51.404;-0.038;2023-07-29T06:09:43;4.32;;;3.00;;
46230;SDS011;31949;51.404;-0.038;2023-07-29T06:12:11;7.97;;;3.83;;
46230;SDS011;31949;51.404;-0.038;2023-07-29T06:14:39;4.32;;;2.58;;
46230;SDS011;31949;51.404;-0.038;2023-07-29T06:17:06;4.70;;;2.30;;
46230;SDS011;31949;51.404;-0.038;2023-07-29T06:19:33;4.78;;;3.30;;
46230;SDS011;31949;51.404;-0.038;2023-07-29T06:22:01;3.40;;;2.70;;
46230;SDS011;31949;51.404;-0.038;2023-07-29T06:24:28;3.55;;;3.17;;
46230;SDS011;31949;51.404;-0.038;2023-07-29T06:26:55;3.20;;;2.72;;
46230;SDS011;31949;51.404;-0.038;2023-07-29T06:29:22;3.78;;;2.28;;
46230;SDS011;31949;51.404;-0.038;2023-07-29T06:31:50;3.92;;;2.78;;
46230;SDS011;31949;51.404;-0.038;2023-07-29T06:34:18;3.78;;;2.45;;
46230;SDS011;31949;51.404;-0.038;2023-07-29T06:36:45;4.30;;;2.85;;
46230;SDS011;31949;51.404;-0.038;2023-07-29T06:39:12;5.88;;;2.13;;
46230;SDS011;31949;51.404;-0.038;2023-07-29T06:41:39;3.72;;;2.03;;
46230;SDS011;31949;51.404;-0.038;2023-07-29T06:44:07;3.75;;;2.10;;
46230;SDS011;31949;51.404;-0.038;2023-07-29T06:46:35;6.15;;;2.30;;
46230;SDS011;31949;51.404;-0.038;2023-07-29T06:49:02;3.30;;;2.38;;
46230;SDS011;31949;51.404;-0.038;2023-07-29T06:51:30;5.30;;;2.35;;
46230;SDS011;31949;51.404;-0.038;2023-07-29T06:53:59;3.13;;;2.55;;
46230;SDS011;31949;51.404;-0.038;2023-07-29T06:56:26;2.20;;;1.88;;
46230;SDS011;31949;51.404;-0.038;2023-07-29T06:58:54;2.85;;;2.05;;
46230;SDS011;31949;51.404;-0.038;2023-07-29T07:01:21;4.32;;;1.92;;
46230;SDS011;31949;51.404;-0.038;2023-07-29T07:03:48;5.68;;;2.28;;
46230;SDS011;31949;51.404;-0.038;2023-07-29T07:06:15;2.83;;;2.63;;
46230;SDS011;31949;51.404;-0.038;2023-07-29T07:08:43;3.55;;;2.20;;
46230;SDS011;31949;51.404;-0.038;2023-07-29T07:11:10;3.67;;;2.60;;
46230;SDS011;31949;51.404;-0.038;2023-07-29T07:13:38;5.95;;;3.38;;
46230;SDS011;31949;51.404;-0.038;2023-07-29T07:16:05;5.30;;;2.65;;
46230;SDS011;31949;51.404;-0.038;2023-07-29T07:18:32;4.25;;;2.65;;
46230;SDS011;31949;51.404;-0.038;2023-07-29T07:21:00;3.35;;;2.30;;
46230;SDS011;31949;51.404;-0.038;2023-07-29T07:23:27;4.38;;;2.28;;
46230;SDS011;31949;51.404;-0.038;2023-07-29T07:25:54;4.32;;;2.50;;
46230;SDS011;31949;51.404;-0.038;2023-07-29T07:28:21;3.60;;;2.03;;
46230;SDS011;31949;51.404;-0.038;2023-07-29T07:30:49;4.00;;;2.22;;
46230;SDS011;31949;51.404;-0.038;2023-07-29T07:33:16;5.18;;;2.85;;
46230;SDS011;31949;51.404;-0.038;2023-07-29T07:35:44;7.32;;;2.75;;
46230;SDS011;31949;51.404;-0.038;2023-07-29T07:38:11;3.55;;;2.42;;
46230;SDS011;31949;51.404;-0.038;2023-07-29T07:40:39;4.38;;;1.67;;
46230;SDS011;31949;51.404;-0.038;2023-07-29T07:43:07;3.30;;;1.90;;
46230;SDS011;31949;51.404;-0.038;2023-07-29T07:45:34;4.88;;;1.98;;
46230;SDS011;31949;51.404;-0.038;2023-07-29T07:48:02;6.05;;;1.98;;
46230;SDS011;31949;51.404;-0.038;2023-07-29T07:50:29;3.42;;;2.28;;
46230;SDS011;31949;51.404;-0.038;2023-07-29T07:52:57;5.95;;;3.13;;
46230;SDS011;31949;51.404;-0.038;2023-07-29T07:55:24;4.60;;;3.13;;
46230;SDS011;31949;51.404;-0.038;2023-07-29T07:57:51;6.28;;;3.15;;
46230;SDS011;31949;51.404;-0.038;2023-07-29T08:00:19;8.93;;;3.80;;
46230;SDS011;31949;51.404;-0.038;2023-07-29T08:02:46;7.63;;;4.32;;
46230;SDS011;31949;51.404;-0.038;2023-07-29T08:05:14;5.03;;;2.85;;
46230;SDS011;31949;51.404;-0.038;2023-07-29T08:07:41;5.55;;;2.42;;
46230;SDS011;31949;51.404;-0.038;2023-07-29T08:10:08;3.92;;;1.90;;
46230;SDS011;31949;51.404;-0.038;2023-07-29T08:12:36;2.30;;;2.05;;
46230;SDS011;31949;51.404;-0.038;2023-07-29T08:15:03;2.33;;;1.70;;
46230;SDS011;31949;51.404;-0.038;2023-07-29T08:17:31;7.47;;;2.42;;
46230;SDS011;31949;51.404;-0.038;2023-07-29T08:19:58;3.85;;;2.58;;
46230;SDS011;31949;51.404;-0.038;2023-07-29T08:22:25;8.55;;;4.10;;
46230;SDS011;31949;51.404;-0.038;2023-07-29T08:24:53;3.13;;;2.83;;
46230;SDS011;31949;51.404;-0.038;2023-07-29T08:27:20;3.92;;;2.92;;
46230;SDS011;31949;51.404;-0.038;2023-07-29T08:29:47;2.65;;;2.35;;
46230;SDS011;31949;51.404;-0.038;2023-07-29T08:32:14;3.35;;;2.75;;
46230;SDS011;31949;51.404;-0.038;2023-07-29T08:34:42;2.60;;;2.38;;
46230;SDS011;31949;51.404;-0.038;2023-07-29T08:37:09;5.72;;;2.30;;
46230;SDS011;31949;51.404;-0.038;2023-07-29T08:39:36;4.60;;;1.95;;
46230;SDS011;31949;51.404;-0.038;2023-07-29T08:42:04;4.68;;;2.20;;
46230;SDS011;31949;51.404;-0.038;2023-07-29T08:44:40;4.10;;;2.08;;
46230;SDS011;31949;51.404;-0.038;2023-07-29T08:47:09;3.00;;;1.80;;
46230;SDS011;31949;51.404;-0.038;2023-07-29T08:49:37;2.80;;;2.17;;
46230;SDS011;31949;51.404;-0.038;2023-07-29T08:52:05;3.95;;;1.73;;
46230;SDS011;31949;51.404;-0.038;2023-07-29T08:54:33;2.08;;;1.67;;
46230;SDS011;31949;51.404;-0.038;2023-07-29T08:57:02;3.15;;;2.00;;
46230;SDS011;31949;51.404;-0.038;2023-07-29T08:59:29;3.97;;;2.05;;
46230;SDS011;31949;51.404;-0.038;2023-07-29T09:01:57;3.63;;;1.92;;
46230;SDS011;31949;51.404;-0.038;2023-07-29T09:04:25;3.20;;;2.17;;
46230;SDS011;31949;51.404;-0.038;2023-07-29T09:06:53;2.58;;;2.33;;
46230;SDS011;31949;51.404;-0.038;2023-07-29T09:09:22;5.68;;;1.98;;
46230;SDS011;31949;51.404;-0.038;2023-07-29T09:11:49;4.07;;;1.65;;
46230;SDS011;31949;51.404;-0.038;2023-07-29T09:14:17;5.63;;;2.10;;
46230;SDS011;31949;51.404;-0.038;2023-07-29T09:16:44;3.65;;;2.00;;
46230;SDS011;31949;51.404;-0.038;2023-07-29T09:19:12;4.43;;;2.08;;
46230;SDS011;31949;51.404;-0.038;2023-07-29T09:21:40;4.80;;;2.47;;
46230;SDS011;31949;51.404;-0.038;2023-07-29T09:24:08;3.72;;;2.30;;
46230;SDS011;31949;51.404;-0.038;2023-07-29T09:26:36;3.58;;;1.83;;
46230;SDS011;31949;51.404;-0.038;2023-07-29T09:29:04;3.13;;;2.10;;
46230;SDS011;31949;51.404;-0.038;2023-07-29T09:31:31;1.83;;;1.60;;
46230;SDS011;31949;51.404;-0.038;2023-07-29T09:33:59;2.85;;;1.88;;
46230;SDS011;31949;51.404;-0.038;2023-07-29T09:36:29;3.42;;;1.88;;
46230;SDS011;31949;51.404;-0.038;2023-07-29T09:38:58;3.17;;;2.15;;
46230;SDS011;31949;51.404;-0.038;2023-07-29T09:41:26;4.57;;;1.80;;
46230;SDS011;31949;51.404;-0.038;2023-07-29T09:43:58;2.25;;;1.73;;
46230;SDS011;31949;51.404;-0.038;2023-07-29T09:46:37;4.07;;;2.20;;
46230;SDS011;31949;51.404;-0.038;2023-07-29T09:49:06;4.50;;;1.88;;
46230;SDS011;31949;51.404;-0.038;2023-07-29T09:51:38;6.43;;;2.33;;
46230;SDS011;31949;51.404;-0.038;2023-07-29T09:54:06;2.97;;;1.80;;
46230;SDS011;31949;51.404;-0.038;2023-07-29T09:56:34;2.42;;;1.73;;
46230;SDS011;31949;51.404;-0.038;2023-07-29T09:59:08;6.25;;;1.95;;
46230;SDS011;31949;51.404;-0.038;2023-07-29T10:01:36;6.65;;;1.83;;
46230;SDS011;31949;51.404;-0.038;2023-07-29T10:04:04;6.78;;;2.08;;
46230;SDS011;31949;51.404;-0.038;2023-07-29T10:06:34;6.50;;;2.10;;
46230;SDS011;31949;51.404;-0.038;2023-07-29T10:09:03;4.15;;;2.30;;
46230;SDS011;31949;51.404;-0.038;2023-07-29T10:11:32;2.45;;;1.90;;
46230;SDS011;31949;51.404;-0.038;2023-07-29T10:14:01;5.47;;;2.05;;
46230;SDS011;31949;51.404;-0.038;2023-07-29T10:16:35;5.10;;;2.25;;
46230;SDS011;31949;51.404;-0.038;2023-07-29T10:19:05;3.33;;;1.80;;
46230;SDS011;31949;51.404;-0.038;2023-07-29T10:21:34;3.35;;;2.35;;
46230;SDS011;31949;51.404;-0.038;2023-07-29T10:24:05;4.43;;;2.17;;
46230;SDS011;31949;51.404;-0.038;2023-07-29T10:26:36;4.17;;;1.90;;
46230;SDS011;31949;51.404;-0.038;2023-07-29T10:29:10;4.88;;;1.90;;
46230;SDS011;31949;51.404;-0.038;2023-07-29T10:31:43;3.08;;;1.70;;
46230;SDS011;31949;51.404;-0.038;2023-07-29T10:34:11;4.10;;;2.15;;
46230;SDS011;31949;51.404;-0.038;2023-07-29T10:36:40;6.93;;;2.53;;
46230;SDS011;31949;51.404;-0.038;2023-07-29T10:39:08;4.47;;;1.58;;
46230;SDS011;31949;51.404;-0.038;2023-07-29T10:47:13;4.03;;;1.98;;
46230;SDS011;31949;51.404;-0.038;2023-07-29T10:49:42;5.00;;;1.50;;
46230;SDS011;31949;51.404;-0.038;2023-07-29T10:52:13;2.50;;;1.55;;
46230;SDS011;31949;51.404;-0.038;2023-07-29T10:54:43;4.80;;;2.08;;
46230;SDS011;31949;51.404;-0.038;2023-07-29T10:59:54;3.92;;;1.40;;
46230;SDS011;31949;51.404;-0.038;2023-07-29T11:02:28;11.25;;;3.20;;
46230;SDS011;31949;51.404;-0.038;2023-07-29T11:04:58;4.78;;;2.03;;
46230;SDS011;31949;51.404;-0.038;2023-07-29T11:07:26;6.03;;;2.25;;
46230;SDS011;31949;51.404;-0.038;2023-07-29T11:10:01;3.20;;;1.67;;
46230;SDS011;31949;51.404;-0.038;2023-07-29T11:17:40;4.10;;;1.70;;
46230;SDS011;31949;51.404;-0.038;2023-07-29T11:20:11;2.30;;;1.80;;
46230;SDS011;31949;51.404;-0.038;2023-07-29T11:22:39;2.45;;;1.80;;
46230;SDS011;31949;51.404;-0.038;2023-07-29T11:25:08;4.93;;;1.95;;
46230;SDS011;31949;51.404;-0.038;2023-07-29T11:27:37;3.35;;;1.52;;
46230;SDS011;31949;51.404;-0.038;2023-07-29T11:30:05;4.53;;;2.17;;
46230;SDS011;31949;51.404;-0.038;2023-07-29T11:32:35;5.35;;;2.10;;
46230;SDS011;31949;51.404;-0.038;2023-07-29T11:35:12;4.10;;;1.58;;
46230;SDS011;31949;51.404;-0.038;2023-07-29T11:37:43;3.35;;;1.38;;
46230;SDS011;31949;51.404;-0.038;2023-07-29T11:40:14;5.57;;;1.70;;
46230;SDS011;31949;51.404;-0.038;2023-07-29T11:42:43;2.95;;;1.50;;
46230;SDS011;31949;51.404;-0.038;2023-07-29T11:45:11;5.35;;;1.60;;
46230;SDS011;31949;51.404;-0.038;2023-07-29T11:50:11;3.92;;;1.73;;
46230;SDS011;31949;51.404;-0.038;2023-07-29T11:52:41;4.70;;;1.85;;
46230;SDS011;31949;51.404;-0.038;2023-07-29T11:55:11;5.95;;;2.20;;
46230;SDS011;31949;51.404;-0.038;2023-07-29T11:57:39;4.50;;;2.17;;
46230;SDS011;31949;51.404;-0.038;2023-07-29T12:00:08;6.45;;;2.28;;
46230;SDS011;31949;51.404;-0.038;2023-07-29T12:02:40;4.18;;;2.10;;
46230;SDS011;31949;51.404;-0.038;2023-07-29T12:05:13;4.72;;;2.40;;
46230;SDS011;31949;51.404;-0.038;2023-07-29T12:07:42;3.10;;;1.65;;
46230;SDS011;31949;51.404;-0.038;2023-07-29T12:10:11;3.90;;;1.80;;
46230;SDS011;31949;51.404;-0.038;2023-07-29T12:12:48;3.25;;;1.67;;
46230;SDS011;31949;51.404;-0.038;2023-07-29T12:15:22;2.78;;;1.38;;
46230;SDS011;31949;51.404;-0.038;2023-07-29T12:17:57;3.35;;;1.75;;
46230;SDS011;31949;51.404;-0.038;2023-07-29T12:20:26;3.87;;;1.93;;
46230;SDS011;31949;51.404;-0.038;2023-07-29T12:22:56;3.05;;;1.45;;
46230;SDS011;31949;51.404;-0.038;2023-07-29T12:25:26;3.67;;;1.60;;
46230;SDS011;31949;51.404;-0.038;2023-07-29T12:27:53;4.85;;;1.63;;
46230;SDS011;31949;51.404;-0.038;2023-07-29T12:30:21;3.10;;;1.10;;
46230;SDS011;31949;51.404;-0.038;2023-07-29T12:32:49;2.97;;;1.80;;
46230;SDS011;31949;51.404;-0.038;2023-07-29T12:35:17;3.97;;;1.50;;
46230;SDS011;31949;51.404;-0.038;2023-07-29T12:37:44;4.90;;;1.40;;
46230;SDS011;31949;51.404;-0.038;2023-07-29T12:40:21;3.15;;;1.98;;
46230;SDS011;31949;51.404;-0.038;2023-07-29T12:42:50;3.13;;;1.50;;
46230;SDS011;31949;51.404;-0.038;2023-07-29T12:45:18;2.92;;;1.30;;
46230;SDS011;31949;51.404;-0.038;2023-07-29T12:47:45;3.92;;;1.30;;
46230;SDS011;31949;51.404;-0.038;2023-07-29T12:50:13;4.25;;;1.45;;
46230;SDS011;31949;51.404;-0.038;2023-07-29T12:52:40;3.33;;;1.42;;
46230;SDS011;31949;51.404;-0.038;2023-07-29T12:55:07;1.73;;;1.10;;
46230;SDS011;31949;51.404;-0.038;2023-07-29T12:57:35;4.35;;;1.63;;
46230;SDS011;31949;51.404;-0.038;2023-07-29T13:00:03;2.70;;;1.50;;
46230;SDS011;31949;51.404;-0.038;2023-07-29T13:02:31;5.32;;;1.75;;
46230;SDS011;31949;51.404;-0.038;2023-07-29T13:04:58;3.78;;;1.90;;
46230;SDS011;31949;51.404;-0.038;2023-07-29T13:07:26;2.38;;;1.30;;
46230;SDS011;31949;51.404;-0.038;2023-07-29T13:09:53;2.85;;;1.55;;
46230;SDS011;31949;51.404;-0.038;2023-07-29T13:12:20;1.63;;;1.08;;
46230;SDS011;31949;51.404;-0.038;2023-07-29T13:14:47;3.45;;;1.58;;
46230;SDS011;31949;51.404;-0.038;2023-07-29T13:17:14;4.97;;;1.45;;
46230;SDS011;31949;51.404;-0.038;2023-07-29T13:19:42;3.05;;;1.23;;
46230;SDS011;31949;51.404;-0.038;2023-07-29T13:22:09;4.88;;;1.40;;
46230;SDS011;31949;51.404;-0.038;2023-07-29T13:24:36;4.50;;;1.30;;
46230;SDS011;31949;51.404;-0.038;2023-07-29T13:27:04;4.25;;;1.55;;
46230;SDS011;31949;51.404;-0.038;2023-07-29T13:29:31;5.85;;;2.20;;
46230;SDS011;31949;51.404;-0.038;2023-07-29T13:31:58;3.75;;;1.90;;
46230;SDS011;31949;51.404;-0.038;2023-07-29T13:34:26;4.20;;;2.22;;
46230;SDS011;31949;51.404;-0.038;2023-07-29T13:36:53;5.15;;;1.70;;
46230;SDS011;31949;51.404;-0.038;2023-07-29T13:39:20;2.22;;;1.25;;
46230;SDS011;31949;51.404;-0.038;2023-07-29T13:41:47;2.45;;;1.40;;
46230;SDS011;31949;51.404;-0.038;2023-07-29T13:44:15;3.33;;;1.50;;
46230;SDS011;31949;51.404;-0.038;2023-07-29T13:46:42;3.15;;;1.80;;
46230;SDS011;31949;51.404;-0.038;2023-07-29T13:49:09;7.57;;;1.70;;
46230;SDS011;31949;51.404;-0.038;2023-07-29T13:51:36;4.43;;;1.50;;
46230;SDS011;31949;51.404;-0.038;2023-07-29T13:54:04;4.03;;;1.02;;
46230;SDS011;31949;51.404;-0.038;2023-07-29T13:56:31;2.63;;;1.40;;
46230;SDS011;31949;51.404;-0.038;2023-07-29T13:58:59;4.38;;;1.20;;
46230;SDS011;31949;51.404;-0.038;2023-07-29T14:01:26;3.47;;;1.60;;
46230;SDS011;31949;51.404;-0.038;2023-07-29T14:03:53;2.88;;;1.10;;
46230;SDS011;31949;51.404;-0.038;2023-07-29T14:06:20;2.10;;;1.05;;
46230;SDS011;31949;51.404;-0.038;2023-07-29T14:09:08;2.83;;;0.90;;
46230;SDS011;31949;51.404;-0.038;2023-07-29T14:11:35;3.58;;;0.98;;
46230;SDS011;31949;51.404;-0.038;2023-07-29T14:14:03;5.82;;;1.52;;
46230;SDS011;31949;51.404;-0.038;2023-07-29T14:16:30;4.05;;;1.17;;
46230;SDS011;31949;51.404;-0.038;2023-07-29T14:18:57;3.85;;;0.90;;
46230;SDS011;31949;51.404;-0.038;2023-07-29T14:21:24;2.53;;;0.77;;
46230;SDS011;31949;51.404;-0.038;2023-07-29T14:23:52;3.05;;;1.23;;
46230;SDS011;31949;51.404;-0.038;2023-07-29T14:26:19;1.90;;;1.10;;
46230;SDS011;31949;51.404;-0.038;2023-07-29T14:28:46;1.88;;;0.77;;
46230;SDS011;31949;51.404;-0.038;2023-07-29T14:31:13;2.90;;;0.70;;
46230;SDS011;31949;51.404;-0.038;2023-07-29T14:33:41;1.75;;;0.93;;
46230;SDS011;31949;51.404;-0.038;2023-07-29T14:36:08;2.13;;;0.90;;
46230;SDS011;31949;51.404;-0.038;2023-07-29T14:38:36;3.35;;;0.88;;
46230;SDS011;31949;51.404;-0.038;2023-07-29T14:41:03;4.13;;;1.15;;
46230;SDS011;31949;51.404;-0.038;2023-07-29T14:43:31;6.88;;;0.98;;
46230;SDS011;31949;51.404;-0.038;2023-07-29T14:45:58;3.30;;;0.70;;
46230;SDS011;31949;51.404;-0.038;2023-07-29T14:48:25;1.65;;;0.65;;
46230;SDS011;31949;51.404;-0.038;2023-07-29T14:50:53;3.55;;;0.82;;
46230;SDS011;31949;51.404;-0.038;2023-07-29T14:53:20;2.45;;;0.90;;
46230;SDS011;31949;51.404;-0.038;2023-07-29T14:55:47;1.90;;;1.00;;
46230;SDS011;31949;51.404;-0.038;2023-07-29T14:58:14;2.67;;;0.75;;
46230;SDS011;31949;51.404;-0.038;2023-07-29T15:00:42;3.35;;;0.98;;